createdAt,value
2023-04-04T00:02:16.876Z,102591.91
2023-04-04T00:05:02.303Z,102580.72
2023-04-04T00:07:47.820Z,102581.63
2023-04-04T00:10:32.816Z,102569.56
2023-04-04T00:13:18.053Z,102576.44
2023-04-04T00:16:03.717Z,102564.34
2023-04-04T00:18:48.951Z,102570.38
2023-04-04T00:21:34.378Z,102570.34
2023-04-04T00:24:19.802Z,102559.19
2023-04-04T00:27:04.841Z,102558.34
2023-04-04T00:29:50.089Z,102560.97
2023-04-04T00:32:35.184Z,102551.53
2023-04-04T00:35:20.623Z,102559.28
2023-04-04T00:38:05.716Z,102560.19
2023-04-04T00:40:51.600Z,102549.00
2023-04-04T00:43:37.778Z,102534.53
2023-04-04T00:46:24.965Z,102547.59
2023-04-04T00:49:09.946Z,102546.81
2023-04-04T00:51:55.368Z,102544.28
2023-04-04T00:54:40.836Z,102543.41
2023-04-04T00:57:28.739Z,102538.19
2023-04-04T01:00:15.366Z,102536.44
2023-04-04T01:03:00.964Z,102525.22
2023-04-04T01:05:46.956Z,102533.88
2023-04-04T01:08:33.125Z,102527.00
2023-04-04T01:11:18.343Z,102526.19
2023-04-04T01:14:03.653Z,102524.44
2023-04-04T01:16:51.108Z,102522.72
2023-04-04T01:19:49.460Z,102521.88
2023-04-04T01:22:35.963Z,102509.84
2023-04-04T01:25:30.197Z,102527.88
2023-04-04T01:28:15.718Z,102529.59
2023-04-04T01:31:02.988Z,102519.28
2023-04-04T01:33:58.900Z,102519.28
2023-04-04T01:37:17.173Z,102517.59
2023-04-04T01:40:14.979Z,102506.38
2023-04-04T01:43:00.354Z,102502.06
2023-04-04T01:45:46.265Z,102515.84
2023-04-04T01:48:31.499Z,102518.44
2023-04-04T01:51:17.182Z,102515.88
2023-04-04T01:54:02.033Z,102515.06
2023-04-04T01:56:47.214Z,102508.16
2023-04-04T01:59:32.574Z,102498.69
2023-04-04T02:02:17.706Z,102496.94
2023-04-04T02:05:04.222Z,102495.22
2023-04-04T02:07:52.291Z,102503.84
2023-04-04T02:10:37.323Z,102499.53
2023-04-04T02:13:22.083Z,102496.13
2023-04-04T02:16:07.245Z,102494.38
2023-04-04T02:18:53.012Z,102478.06
2023-04-04T02:21:37.911Z,102496.09
2023-04-04T02:24:23.009Z,102507.31
2023-04-04T02:27:08.105Z,102514.25
2023-04-04T02:29:53.919Z,102504.75
2023-04-04T02:32:40.020Z,102508.19
2023-04-04T02:35:25.796Z,102515.09
2023-04-04T02:38:10.867Z,102519.41
2023-04-04T02:40:55.928Z,102491.03
2023-04-04T02:43:41.168Z,102499.63
2023-04-04T02:46:26.122Z,102497.91
2023-04-04T02:49:12.595Z,102500.47
2023-04-04T02:51:58.114Z,102498.78
2023-04-04T02:54:43.436Z,102498.78
2023-04-04T02:57:28.737Z,102502.19
2023-04-04T03:00:13.822Z,102508.25
2023-04-04T03:02:59.428Z,102502.22
2023-04-04T03:05:44.987Z,102503.06
2023-04-04T03:08:30.548Z,102503.06
2023-04-04T03:11:21.240Z,102504.81
2023-04-04T03:14:07.558Z,102500.50
2023-04-04T03:16:53.693Z,102516.84
2023-04-04T03:19:38.805Z,102509.97
2023-04-04T03:22:23.993Z,102511.66
2023-04-04T03:25:09.741Z,102509.97
2023-04-04T03:27:54.990Z,102505.66
2023-04-04T03:30:40.436Z,102498.78
2023-04-04T03:33:25.764Z,102503.94
2023-04-04T03:36:12.774Z,102512.53
2023-04-04T03:38:57.966Z,102502.19
2023-04-04T03:41:43.222Z,102507.41
2023-04-04T03:44:28.205Z,102505.66
2023-04-04T03:47:16.569Z,102515.09
2023-04-04T03:50:02.415Z,102509.09
2023-04-04T03:52:47.736Z,102500.47
2023-04-04T03:55:33.975Z,102512.50
2023-04-04T03:58:19.682Z,102509.06
2023-04-04T04:01:05.042Z,102510.78
2023-04-04T04:03:50.454Z,102520.22
2023-04-04T04:06:35.879Z,102508.22
2023-04-04T04:09:21.325Z,102508.22
2023-04-04T04:12:06.892Z,102513.38
2023-04-04T04:14:52.057Z,102503.06
2023-04-04T04:17:41.119Z,102507.34
2023-04-04T04:20:26.613Z,102518.53
2023-04-04T04:23:11.772Z,102517.66
2023-04-04T04:25:56.893Z,102513.38
2023-04-04T04:28:42.159Z,102515.06
2023-04-04T04:31:27.765Z,102508.16
2023-04-04T04:34:13.689Z,102503.88
2023-04-04T04:36:59.369Z,102495.25
2023-04-04T04:39:44.291Z,102495.28
2023-04-04T04:42:29.692Z,102502.16
2023-04-04T04:45:14.830Z,102507.28
2023-04-04T04:48:00.115Z,102509.03
2023-04-04T04:50:46.087Z,102517.63
2023-04-04T04:53:31.436Z,102523.63
2023-04-04T04:56:16.681Z,102504.66
2023-04-04T04:59:01.737Z,102521.91
2023-04-04T05:01:46.957Z,102522.75
2023-04-04T05:04:32.445Z,102515.84
2023-04-04T05:07:17.590Z,102534.78
2023-04-04T05:10:03.157Z,102527.00
2023-04-04T05:12:48.254Z,102525.31
2023-04-04T05:15:33.123Z,102512.34
2023-04-04T05:18:18.311Z,102525.25
2023-04-04T05:21:03.882Z,102538.97
2023-04-04T05:23:48.813Z,102535.53
2023-04-04T05:26:35.048Z,102540.66
2023-04-04T05:29:20.315Z,102545.81
2023-04-04T05:32:05.725Z,102541.56
2023-04-04T05:34:50.855Z,102544.13
2023-04-04T05:37:39.391Z,102542.41
2023-04-04T05:40:24.633Z,102540.69
2023-04-04T05:43:09.836Z,102536.41
2023-04-04T05:45:55.552Z,102538.97
2023-04-04T05:48:41.075Z,102540.69
2023-04-04T05:51:26.326Z,102538.13
2023-04-04T05:54:11.424Z,102536.41
2023-04-04T05:56:56.496Z,102530.41
2023-04-04T05:59:41.677Z,102541.63
2023-04-04T06:02:27.034Z,102530.47
2023-04-04T06:05:12.368Z,102533.03
2023-04-04T06:07:58.162Z,102531.31
2023-04-04T06:10:43.607Z,102545.09
2023-04-04T06:13:28.824Z,102548.50
2023-04-04T06:16:14.142Z,102538.19
2023-04-04T06:18:59.246Z,102540.78
2023-04-04T06:21:44.584Z,102547.72
2023-04-04T06:24:29.804Z,102546.00
2023-04-04T06:27:14.949Z,102554.59
2023-04-04T06:30:00.297Z,102555.50
2023-04-04T06:32:45.526Z,102570.97
2023-04-04T06:35:30.980Z,102561.53
2023-04-04T06:38:16.030Z,102557.25
2023-04-04T06:41:01.312Z,102565.84
2023-04-04T06:43:49.390Z,102560.69
2023-04-04T06:46:37.408Z,102573.63
2023-04-04T06:49:22.223Z,102570.19
2023-04-04T06:52:07.154Z,102575.34
2023-04-04T06:54:52.666Z,102563.31
2023-04-04T06:57:38.537Z,102573.63
2023-04-04T07:00:23.583Z,102564.16
2023-04-04T07:03:08.841Z,102575.31
2023-04-04T07:05:55.436Z,102583.91
2023-04-04T07:08:40.777Z,102582.16
2023-04-04T07:11:27.192Z,102585.56
2023-04-04T07:14:12.764Z,102574.34
2023-04-04T07:16:58.284Z,102592.34
2023-04-04T07:19:43.580Z,102578.53
2023-04-04T07:22:28.371Z,102585.38
2023-04-04T07:25:13.561Z,102589.63
2023-04-04T07:28:09.515Z,102586.94
2023-04-04T07:31:01.823Z,102590.31
2023-04-04T07:33:46.772Z,102593.31
2023-04-04T07:36:31.875Z,102581.19
2023-04-04T07:39:17.116Z,102577.78
2023-04-04T07:42:02.321Z,102576.94
2023-04-04T07:44:47.268Z,102580.28
2023-04-04T07:47:32.534Z,102563.81
2023-04-04T07:50:17.581Z,102572.25
2023-04-04T07:53:02.841Z,102570.94
2023-04-04T07:55:48.370Z,102578.09
2023-04-04T07:58:34.278Z,102565.09
2023-04-04T08:01:19.368Z,102578.84
2023-04-04T08:04:05.722Z,102550.22
2023-04-04T08:06:51.652Z,102562.94
2023-04-04T08:09:36.794Z,102548.94
2023-04-04T08:12:22.076Z,102557.47
2023-04-04T08:15:07.863Z,102553.03
2023-04-04T08:17:53.472Z,102550.22
2023-04-04T08:20:39.021Z,102554.41
2023-04-04T08:23:24.571Z,102550.78
2023-04-04T08:26:09.814Z,102545.47
2023-04-04T08:28:55.343Z,102539.28
2023-04-04T08:31:41.330Z,102545.06
2023-04-04T08:34:26.244Z,102546.69
2023-04-04T08:37:11.434Z,102545.63
2023-04-04T08:39:56.765Z,102542.00
2023-04-04T08:42:44.348Z,102540.09
2023-04-04T08:45:31.512Z,102533.06
2023-04-04T08:48:17.966Z,102526.03
2023-04-04T08:51:04.709Z,102532.78
2023-04-04T08:53:51.283Z,102542.78
2023-04-04T08:56:36.508Z,102535.66
2023-04-04T08:59:22.112Z,102541.50
2023-04-04T09:02:11.057Z,102528.47
2023-04-04T09:05:05.424Z,102542.81
2023-04-04T09:07:53.155Z,102545.00
2023-04-04T09:10:40.041Z,102553.41
2023-04-04T09:13:25.410Z,102539.34
2023-04-04T09:16:10.510Z,102538.31
2023-04-04T09:18:55.754Z,102542.97
2023-04-04T09:21:47.125Z,102543.69
2023-04-04T09:24:43.265Z,102526.47
2023-04-04T09:27:28.404Z,102542.69
2023-04-04T09:30:13.963Z,102523.22
2023-04-04T09:33:05.006Z,102531.56
2023-04-04T09:35:54.484Z,102535.31
2023-04-04T09:38:43.285Z,102536.13
2023-04-04T09:41:29.430Z,102533.38
2023-04-04T09:44:16.587Z,102530.50
2023-04-04T09:50:22.986Z,102529.16
2023-04-04T09:53:08.651Z,102524.44
2023-04-04T09:55:55.627Z,102529.56
2023-04-04T09:58:52.483Z,102528.16
2023-04-04T10:01:46.140Z,102520.47
2023-04-04T10:04:32.332Z,102521.31
2023-04-04T10:07:18.690Z,102532.56
2023-04-04T10:10:09.061Z,102531.09
2023-04-04T10:12:57.882Z,102516.03
2023-04-04T10:15:44.720Z,102534.69
2023-04-04T10:18:32.401Z,102530.03
2023-04-04T10:21:17.766Z,102519.41
2023-04-04T10:24:09.272Z,102525.00
2023-04-04T10:26:55.427Z,102516.22
2023-04-04T10:29:40.559Z,102514.13
2023-04-04T10:32:53.840Z,102505.88
2023-04-04T10:35:43.935Z,102512.78
2023-04-04T10:38:31.578Z,102514.56
2023-04-04T10:41:17.933Z,102495.31
2023-04-04T10:44:17.531Z,102497.88
2023-04-04T10:47:14.652Z,102497.47
2023-04-04T10:50:00.679Z,102486.19
2023-04-04T10:52:46.408Z,102486.69
2023-04-04T10:55:33.214Z,102490.19
2023-04-04T10:58:18.538Z,102484.78
2023-04-04T11:01:03.909Z,102486.09
2023-04-04T11:04:20.734Z,102483.16
2023-04-04T11:07:10.231Z,102476.59
2023-04-04T11:09:56.733Z,102456.81
2023-04-04T11:12:46.112Z,102475.25
2023-04-04T11:15:58.767Z,102472.19
2023-04-04T11:18:45.364Z,102465.19
2023-04-04T11:21:32.661Z,102460.16
2023-04-04T11:24:17.745Z,102452.66
2023-04-04T11:27:06.922Z,102464.28
2023-04-04T11:29:55.380Z,102454.78
2023-04-04T11:32:59.913Z,102451.00
2023-04-04T11:35:50.255Z,102448.81
2023-04-04T11:38:35.980Z,102445.25
2023-04-04T11:41:21.588Z,102438.34
2023-04-04T11:44:10.322Z,102438.69
2023-04-04T11:47:04.349Z,102441.63
2023-04-04T11:49:51.732Z,102432.38
2023-04-04T11:52:38.311Z,102424.63
2023-04-04T11:55:23.779Z,102425.41
2023-04-04T11:58:12.812Z,102423.69
2023-04-04T12:00:58.993Z,102425.53
2023-04-04T12:03:44.330Z,102419.97
2023-04-04T12:06:32.744Z,102413.03
2023-04-04T12:09:20.249Z,102414.03
2023-04-04T12:12:07.581Z,102404.75
2023-04-04T12:15:00.214Z,102413.06
2023-04-04T12:17:51.856Z,102414.59
2023-04-04T12:20:41.507Z,102405.50
2023-04-04T12:23:28.505Z,102413.91
2023-04-04T12:26:14.032Z,102415.09
2023-04-04T12:29:00.782Z,102407.00
2023-04-04T12:31:47.228Z,102396.47
2023-04-04T12:34:34.601Z,102405.94
2023-04-04T12:37:22.314Z,102393.56
2023-04-04T12:40:07.631Z,102402.75
2023-04-04T12:42:53.050Z,102401.34
2023-04-04T12:45:42.278Z,102403.06
2023-04-04T12:48:29.669Z,102407.94
2023-04-04T12:51:15.950Z,102396.16
2023-04-04T12:54:01.369Z,102403.91
2023-04-04T12:56:46.729Z,102406.34
2023-04-04T12:59:34.000Z,102404.19
2023-04-04T13:02:22.116Z,102397.00
2023-04-04T13:05:10.136Z,102401.28
2023-04-04T13:08:06.750Z,102392.22
2023-04-04T13:10:59.678Z,102391.19
2023-04-04T13:16:37.060Z,102379.66
2023-04-04T13:19:23.078Z,102373.16
2023-04-04T13:22:09.526Z,102376.56
2023-04-04T13:24:54.354Z,102365.25
2023-04-04T13:27:39.429Z,102351.09
2023-04-04T13:30:24.704Z,102361.69
2023-04-04T13:33:09.984Z,102364.63
2023-04-04T13:35:55.263Z,102355.31
2023-04-04T13:38:40.416Z,102358.31
2023-04-04T13:41:25.869Z,102348.47
2023-04-04T13:44:10.854Z,102350.78
2023-04-04T13:46:56.045Z,102351.94
2023-04-04T13:49:41.173Z,102347.06
2023-04-04T13:52:26.375Z,102343.94
2023-04-04T13:55:11.752Z,102328.63
2023-04-04T13:57:57.216Z,102348.44
2023-04-04T14:00:42.909Z,102340.00
2023-04-04T14:03:28.071Z,102345.75
2023-04-04T14:06:13.416Z,102340.38
2023-04-04T14:08:58.682Z,102345.09
2023-04-04T14:11:43.984Z,102339.03
2023-04-04T14:14:29.351Z,102334.81
2023-04-04T14:17:14.502Z,102332.19
2023-04-04T14:19:59.908Z,102328.56
2023-04-04T14:22:45.053Z,102327.41
2023-04-04T14:25:30.060Z,102322.09
2023-04-04T14:28:14.985Z,102320.16
2023-04-04T14:31:00.245Z,102331.50
2023-04-04T14:33:45.641Z,102310.88
2023-04-04T14:36:31.696Z,102300.56
2023-04-04T14:39:17.072Z,102297.28
2023-04-04T14:42:01.927Z,102305.41
2023-04-04T14:44:47.112Z,102291.88
2023-04-04T14:47:32.318Z,102290.31
2023-04-04T14:50:17.708Z,102295.94
2023-04-04T14:53:03.135Z,102279.88
2023-04-04T14:55:48.330Z,102273.28
2023-04-04T14:58:33.521Z,102269.09
2023-04-04T15:01:21.371Z,102270.59
2023-04-04T15:04:07.333Z,102276.75
2023-04-04T15:06:53.542Z,102274.63
2023-04-04T15:09:38.641Z,102273.63
2023-04-04T15:12:23.586Z,102260.19
2023-04-04T15:15:09.133Z,102257.88
2023-04-04T15:17:54.562Z,102261.09
2023-04-04T15:20:40.473Z,102266.19
2023-04-04T15:23:25.546Z,102252.94
2023-04-04T15:26:10.693Z,102259.84
2023-04-04T15:28:55.749Z,102256.38
2023-04-04T15:31:41.066Z,102259.19
2023-04-04T15:34:26.373Z,102252.53
2023-04-04T15:37:12.230Z,102251.25
2023-04-04T15:39:57.686Z,102243.56
2023-04-04T15:42:42.874Z,102246.06
2023-04-04T15:45:28.047Z,102248.41
2023-04-04T15:48:13.353Z,102245.06
2023-04-04T15:51:02.507Z,102250.91
2023-04-04T15:53:47.988Z,102237.19
2023-04-04T15:56:33.252Z,102236.16
2023-04-04T15:59:18.201Z,102231.19
2023-04-04T16:02:06.372Z,102236.19
2023-04-04T16:04:51.692Z,102223.34
2023-04-04T16:07:36.981Z,102226.22
2023-04-04T16:10:22.112Z,102222.13
2023-04-04T16:13:07.310Z,102208.84
2023-04-04T16:15:52.828Z,102202.03
2023-04-04T16:18:38.000Z,102205.59
2023-04-04T16:21:23.324Z,102200.28
2023-04-04T16:24:08.945Z,102188.31
2023-04-04T16:26:54.119Z,102184.13
2023-04-04T16:29:39.078Z,102194.94
2023-04-04T16:32:24.145Z,102190.53
2023-04-04T16:35:09.830Z,102191.28
2023-04-04T16:37:55.449Z,102184.63
2023-04-04T16:40:40.944Z,102179.81
2023-04-04T16:43:27.028Z,102180.84
2023-04-04T16:46:11.933Z,102184.41
2023-04-04T16:48:57.028Z,102173.59
2023-04-04T16:51:41.952Z,102184.22
2023-04-04T16:54:27.285Z,102180.81
2023-04-04T16:57:12.368Z,102179.34
2023-04-04T16:59:57.512Z,102181.00
2023-04-04T17:02:45.817Z,102172.72
2023-04-04T17:05:31.202Z,102175.25
2023-04-04T17:08:16.488Z,102164.69
2023-04-04T17:11:01.795Z,102177.72
2023-04-04T17:13:47.546Z,102176.72
2023-04-04T17:16:32.446Z,102181.81
2023-04-04T17:19:17.530Z,102181.28
2023-04-04T17:22:03.278Z,102168.63
2023-04-04T17:24:48.743Z,102161.63
2023-04-04T17:27:33.760Z,102173.59
2023-04-04T17:30:18.787Z,102180.25
2023-04-04T17:33:04.291Z,102180.94
2023-04-04T17:35:49.909Z,102175.94
2023-04-04T17:38:36.044Z,102181.03
2023-04-04T17:41:21.074Z,102190.03
2023-04-04T17:44:06.321Z,102176.34
2023-04-04T17:46:51.688Z,102178.78
2023-04-04T17:49:37.169Z,102178.88
2023-04-04T17:52:22.013Z,102182.25
2023-04-04T17:55:08.716Z,102191.84
2023-04-04T17:57:53.956Z,102185.41
2023-04-04T18:00:39.568Z,102188.09
2023-04-04T18:03:25.219Z,102190.03
2023-04-04T18:06:10.615Z,102191.94
2023-04-04T18:08:57.738Z,102181.06
2023-04-04T18:11:42.995Z,102188.91
2023-04-04T18:14:27.863Z,102193.81
2023-04-04T18:17:13.230Z,102200.50
2023-04-04T18:19:59.013Z,102203.47
2023-04-04T18:22:45.746Z,102193.13
2023-04-04T18:25:33.359Z,102213.19
2023-04-04T18:28:18.322Z,102219.78
2023-04-04T18:31:03.685Z,102211.22
2023-04-04T18:33:49.894Z,102207.91
2023-04-04T18:36:36.894Z,102212.78
2023-04-04T18:39:22.142Z,102217.66
2023-04-04T18:42:08.617Z,102207.63
2023-04-04T18:44:53.882Z,102209.94
2023-04-04T18:47:40.306Z,102213.84
2023-04-04T18:50:26.356Z,102207.22
2023-04-04T18:53:11.543Z,102209.25
2023-04-04T18:55:57.892Z,102213.81
2023-04-04T18:58:43.072Z,102218.88
2023-04-04T19:01:28.782Z,102217.34
2023-04-04T19:04:19.822Z,102224.41
2023-04-04T19:07:08.885Z,102226.53
2023-04-04T19:09:55.458Z,102212.22
2023-04-04T19:12:40.408Z,102215.81
2023-04-04T19:15:25.581Z,102215.28
2023-04-04T19:18:11.834Z,102215.59
2023-04-04T19:20:58.423Z,102218.66
2023-04-04T19:23:43.521Z,102222.50
2023-04-04T19:26:28.770Z,102229.72
2023-04-04T19:29:21.062Z,102209.53
2023-04-04T19:32:19.500Z,102222.78
2023-04-04T19:35:20.539Z,102224.00
2023-04-04T19:38:07.547Z,102233.97
2023-04-04T19:40:59.193Z,102223.00
2023-04-04T19:43:46.175Z,102227.59
2023-04-04T19:46:33.178Z,102230.53
2023-04-04T19:49:19.278Z,102236.09
2023-04-04T19:52:05.689Z,102245.72
2023-04-04T19:54:50.941Z,102228.63
2023-04-04T19:57:37.659Z,102252.03
2023-04-04T20:00:24.072Z,102251.47
2023-04-04T20:03:24.082Z,102240.38
2023-04-04T20:06:10.210Z,102248.47
2023-04-04T20:08:57.696Z,102246.13
2023-04-04T20:11:42.933Z,102246.50
2023-04-04T20:14:28.651Z,102231.47
2023-04-04T20:17:17.839Z,102238.44
2023-04-04T20:20:08.994Z,102243.09
2023-04-04T20:22:54.081Z,102245.78
2023-04-04T20:25:41.823Z,102246.66
2023-04-04T20:28:28.567Z,102241.78
2023-04-04T20:31:17.942Z,102241.09
2023-04-04T20:34:05.760Z,102244.75
2023-04-04T20:36:51.044Z,102243.28
2023-04-04T20:39:41.316Z,102252.00
2023-04-04T20:42:26.175Z,102257.31
2023-04-04T20:45:28.124Z,102247.19
2023-04-04T20:48:33.885Z,102254.47
2023-04-04T20:51:23.979Z,102259.13
2023-04-04T20:54:09.611Z,102240.41
2023-04-04T20:56:56.694Z,102256.03
2023-04-04T20:59:43.585Z,102239.00
2023-04-04T21:02:28.995Z,102259.88
2023-04-04T21:05:27.770Z,102258.34
2023-04-04T21:08:16.056Z,102262.09
2023-04-04T21:11:01.328Z,102263.13
2023-04-04T21:13:47.298Z,102264.97
2023-04-04T21:16:32.424Z,102260.63
2023-04-04T21:19:23.415Z,102262.31
2023-04-04T21:22:09.036Z,102241.84
2023-04-04T21:24:54.127Z,102253.34
2023-04-04T21:27:39.358Z,102228.69
2023-04-04T21:30:44.598Z,102236.50
2023-04-04T21:33:29.643Z,102230.66
2023-04-04T21:36:28.269Z,102245.91
2023-04-04T21:39:25.592Z,102239.00
2023-04-04T21:42:10.535Z,102237.34
2023-04-04T21:44:55.899Z,102240.81
2023-04-04T21:47:41.210Z,102239.97
2023-04-04T21:50:26.275Z,102238.66
2023-04-04T21:53:11.536Z,102237.63
2023-04-04T21:55:57.088Z,102241.28
2023-04-04T21:58:42.626Z,102245.72
2023-04-04T22:01:28.195Z,102239.84
2023-04-04T22:04:13.302Z,102242.53
2023-04-04T22:06:58.417Z,102248.59
2023-04-04T22:09:43.745Z,102253.03
2023-04-04T22:12:28.584Z,102242.81
2023-04-04T22:15:13.577Z,102258.38
2023-04-04T22:18:05.117Z,102264.53
2023-04-04T22:20:54.831Z,102265.56
2023-04-04T22:23:40.331Z,102257.94
2023-04-04T22:26:34.590Z,102249.47
2023-04-04T22:29:20.028Z,102254.84
2023-04-04T22:32:05.505Z,102265.34
2023-04-04T22:34:50.757Z,102256.19
2023-04-04T22:37:36.042Z,102254.69
2023-04-04T22:40:21.288Z,102249.19
2023-04-04T22:43:06.268Z,102253.00
2023-04-04T22:45:51.851Z,102252.44
2023-04-04T22:48:41.067Z,102255.25
2023-04-04T22:51:26.203Z,102250.19
2023-04-04T22:54:15.782Z,102252.94
2023-04-04T22:57:01.298Z,102253.91
2023-04-04T22:59:46.524Z,102248.59
2023-04-04T23:02:31.753Z,102245.19
2023-04-04T23:05:18.564Z,102249.69
2023-04-04T23:08:03.945Z,102242.81
2023-04-04T23:10:48.921Z,102237.63
2023-04-04T23:13:34.786Z,102235.81
2023-04-04T23:16:23.598Z,102242.69
2023-04-04T23:19:09.007Z,102224.66
2023-04-04T23:21:54.308Z,102240.94
2023-04-04T23:24:40.290Z,102236.59
2023-04-04T23:27:25.564Z,102250.47
2023-04-04T23:30:11.704Z,102242.81
2023-04-04T23:32:56.712Z,102248.22
2023-04-04T23:35:42.003Z,102240.69
2023-04-04T23:38:27.054Z,102255.34
2023-04-04T23:41:12.636Z,102241.59
2023-04-04T23:43:57.734Z,102232.41
2023-04-04T23:46:42.991Z,102232.38
2023-04-04T23:49:28.167Z,102224.69
2023-04-04T23:52:13.059Z,102229.91
2023-04-04T23:54:58.022Z,102220.38
2023-04-04T23:57:43.828Z,102211.84
